sensor_id;sensor_type;location;lat;lon;timestamp;pressure;altitude;pressure_sealevel;temperature;humidity
68320;BME280;55168;51.120;17.024;2022-12-18T00:00:00;101780;;;-5.3;100.0
68320;BME280;55168;51.120;17.024;2022-12-18T00:01:00;101780;;;-5.4;100.0
68320;BME280;55168;51.120;17.024;2022-12-18T00:02:00;101780;;;-5.4;100.0
68320;BME280;55168;51.120;17.024;2022-12-18T00:03:00;101780;;;-5.4;100.0
68320;BME280;55168;51.120;17.024;2022-12-18T00:04:00;101780;;;-5.5;100.0
68320;BME280;55168;51.120;17.024;2022-12-18T00:05:00;101780;;;-5.6;100.0
68320;BME280;55168;51.120;17.024;2022-12-18T00:06:00;101780;;;-5.7;100.0
68320;BME280;55168;51.120;17.024;2022-12-18T00:07:00;101780;;;-5.7;100.0
68320;BME280;55168;51.120;17.024;2022-12-18T00:08:00;101790;;;-5.7;100.0
68320;BME280;55168;51.120;17.024;2022-12-18T00:09:00;101790;;;-5.7;100.0
68320;BME280;55168;51.120;17.024;2022-12-18T00:10:00;101790;;;-5.6;100.0
68320;BME280;55168;51.120;17.024;2022-12-18T00:11:03;101790;;;-5.5;100.0
68320;BME280;55168;51.120;17.024;2022-12-18T00:12:00;101780;;;-5.5;100.0
68320;BME280;55168;51.120;17.024;2022-12-18T00:13:00;101790;;;-5.5;100.0
68320;BME280;55168;51.120;17.024;2022-12-18T00:14:00;101790;;;-5.4;100.0
68320;BME280;55168;51.120;17.024;2022-12-18T00:15:00;101790;;;-5.4;100.0
68320;BME280;55168;51.120;17.024;2022-12-18T00:16:02;101790;;;-5.4;100.0
68320;BME280;55168;51.120;17.024;2022-12-18T00:17:00;101790;;;-5.5;100.0
68320;BME280;55168;51.120;17.024;2022-12-18T00:18:00;101800;;;-5.4;100.0
68320;BME280;55168;51.120;17.024;2022-12-18T00:19:00;101790;;;-5.4;100.0
68320;BME280;55168;51.120;17.024;2022-12-18T00:20:00;101790;;;-5.4;100.0
68320;BME280;55168;51.120;17.024;2022-12-18T00:21:00;101790;;;-5.5;100.0
68320;BME280;55168;51.120;17.024;2022-12-18T00:22:00;101790;;;-5.6;100.0
68320;BME280;55168;51.120;17.024;2022-12-18T00:23:00;101790;;;-5.5;100.0
68320;BME280;55168;51.120;17.024;2022-12-18T00:24:00;101790;;;-5.4;100.0
68320;BME280;55168;51.120;17.024;2022-12-18T00:25:00;101790;;;-5.4;100.0
68320;BME280;55168;51.120;17.024;2022-12-18T00:26:01;101790;;;-5.6;100.0
68320;BME280;55168;51.120;17.024;2022-12-18T00:27:00;101790;;;-5.7;100.0
68320;BME280;55168;51.120;17.024;2022-12-18T00:28:00;101800;;;-5.6;100.0
68320;BME280;55168;51.120;17.024;2022-12-18T00:29:00;101800;;;-5.5;100.0
68320;BME280;55168;51.120;17.024;2022-12-18T00:30:00;101790;;;-5.6;100.0
68320;BME280;55168;51.120;17.024;2022-12-18T00:31:03;101790;;;-5.5;100.0
68320;BME280;55168;51.120;17.024;2022-12-18T00:32:00;101790;;;-5.6;100.0
68320;BME280;55168;51.120;17.024;2022-12-18T00:33:00;101790;;;-5.5;100.0
68320;BME280;55168;51.120;17.024;2022-12-18T00:34:00;101800;;;-5.5;100.0
68320;BME280;55168;51.120;17.024;2022-12-18T00:35:00;101800;;;-5.5;100.0
68320;BME280;55168;51.120;17.024;2022-12-18T00:36:00;101800;;;-5.5;100.0
68320;BME280;55168;51.120;17.024;2022-12-18T00:37:00;101810;;;-5.5;100.0
68320;BME280;55168;51.120;17.024;2022-12-18T00:38:00;101810;;;-5.5;100.0
68320;BME280;55168;51.120;17.024;2022-12-18T00:39:00;101810;;;-5.4;100.0
68320;BME280;55168;51.120;17.024;2022-12-18T00:40:00;101810;;;-5.4;100.0
68320;BME280;55168;51.120;17.024;2022-12-18T00:41:00;101820;;;-5.4;100.0
68320;BME280;55168;51.120;17.024;2022-12-18T00:42:00;101820;;;-5.5;100.0
68320;BME280;55168;51.120;17.024;2022-12-18T00:43:00;101820;;;-5.5;100.0
68320;BME280;55168;51.120;17.024;2022-12-18T00:44:00;101820;;;-5.5;100.0
68320;BME280;55168;51.120;17.024;2022-12-18T00:45:00;101820;;;-5.5;100.0
68320;BME280;55168;51.120;17.024;2022-12-18T00:46:00;101820;;;-5.4;100.0
68320;BME280;55168;51.120;17.024;2022-12-18T00:47:00;101820;;;-5.4;100.0
68320;BME280;55168;51.120;17.024;2022-12-18T00:48:00;101820;;;-5.5;100.0
68320;BME280;55168;51.120;17.024;2022-12-18T00:49:00;101830;;;-5.4;100.0
68320;BME280;55168;51.120;17.024;2022-12-18T00:50:00;101820;;;-5.4;100.0
68320;BME280;55168;51.120;17.024;2022-12-18T00:51:00;101820;;;-5.4;100.0
68320;BME280;55168;51.120;17.024;2022-12-18T00:52:00;101830;;;-5.3;100.0
68320;BME280;55168;51.120;17.024;2022-12-18T00:53:00;101830;;;-5.3;100.0
68320;BME280;55168;51.120;17.024;2022-12-18T00:54:00;101830;;;-5.4;100.0
68320;BME280;55168;51.120;17.024;2022-12-18T00:55:00;101830;;;-5.4;100.0
68320;BME280;55168;51.120;17.024;2022-12-18T00:56:00;101840;;;-5.3;100.0
68320;BME280;55168;51.120;17.024;2022-12-18T00:57:00;101840;;;-5.3;100.0
68320;BME280;55168;51.120;17.024;2022-12-18T00:58:00;101840;;;-5.4;100.0
68320;BME280;55168;51.120;17.024;2022-12-18T00:59:00;101840;;;-5.4;100.0
68320;BME280;55168;51.120;17.024;2022-12-18T01:00:00;101840;;;-5.3;100.0
68320;BME280;55168;51.120;17.024;2022-12-18T01:01:00;101850;;;-5.4;100.0
68320;BME280;55168;51.120;17.024;2022-12-18T01:02:00;101850;;;-5.4;100.0
68320;BME280;55168;51.120;17.024;2022-12-18T01:03:00;101850;;;-5.4;100.0
68320;BME280;55168;51.120;17.024;2022-12-18T01:04:00;101850;;;-5.3;100.0
68320;BME280;55168;51.120;17.024;2022-12-18T01:05:00;101860;;;-5.2;100.0
68320;BME280;55168;51.120;17.024;2022-12-18T01:06:04;101850;;;-5.2;100.0
68320;BME280;55168;51.120;17.024;2022-12-18T01:07:00;101850;;;-5.2;100.0
68320;BME280;55168;51.120;17.024;2022-12-18T01:08:00;101860;;;-5.2;100.0
68320;BME280;55168;51.120;17.024;2022-12-18T01:09:00;101850;;;-5.3;100.0
68320;BME280;55168;51.120;17.024;2022-12-18T01:10:00;101860;;;-5.3;100.0
68320;BME280;55168;51.120;17.024;2022-12-18T01:11:00;101860;;;-5.3;100.0
68320;BME280;55168;51.120;17.024;2022-12-18T01:12:00;101860;;;-5.2;100.0
68320;BME280;55168;51.120;17.024;2022-12-18T01:13:00;101860;;;-5.1;100.0
68320;BME280;55168;51.120;17.024;2022-12-18T01:14:00;101870;;;-5.1;100.0
68320;BME280;55168;51.120;17.024;2022-12-18T01:15:00;101860;;;-5.0;100.0
68320;BME280;55168;51.120;17.024;2022-12-18T01:16:00;101870;;;-5.0;100.0
68320;BME280;55168;51.120;17.024;2022-12-18T01:17:00;101870;;;-5.0;100.0
68320;BME280;55168;51.120;17.024;2022-12-18T01:18:00;101870;;;-5.0;100.0
68320;BME280;55168;51.120;17.024;2022-12-18T01:19:00;101870;;;-5.0;100.0
68320;BME280;55168;51.120;17.024;2022-12-18T01:20:00;101870;;;-5.0;100.0
68320;BME280;55168;51.120;17.024;2022-12-18T01:21:00;101870;;;-5.1;100.0
68320;BME280;55168;51.120;17.024;2022-12-18T01:22:00;101870;;;-5.1;100.0
68320;BME280;55168;51.120;17.024;2022-12-18T01:23:00;101880;;;-5.1;100.0
68320;BME280;55168;51.120;17.024;2022-12-18T01:24:00;101870;;;-5.1;100.0
68320;BME280;55168;51.120;17.024;2022-12-18T01:25:00;101880;;;-5.1;100.0
68320;BME280;55168;51.120;17.024;2022-12-18T01:26:07;101880;;;-5.1;100.0
68320;BME280;55168;51.120;17.024;2022-12-18T01:27:00;101880;;;-5.1;100.0
68320;BME280;55168;51.120;17.024;2022-12-18T01:28:00;101880;;;-5.2;100.0
68320;BME280;55168;51.120;17.024;2022-12-18T01:29:00;101880;;;-5.3;100.0
68320;BME280;55168;51.120;17.024;2022-12-18T01:30:00;101880;;;-5.3;100.0
68320;BME280;55168;51.120;17.024;2022-12-18T01:32:00;101880;;;-5.4;100.0
68320;BME280;55168;51.120;17.024;2022-12-18T01:33:00;101880;;;-5.4;100.0
68320;BME280;55168;51.120;17.024;2022-12-18T01:34:00;101880;;;-5.4;100.0
68320;BME280;55168;51.120;17.024;2022-12-18T01:35:00;101880;;;-5.3;100.0
68320;BME280;55168;51.120;17.024;2022-12-18T01:36:00;101880;;;-5.2;100.0
68320;BME280;55168;51.120;17.024;2022-12-18T01:37:01;101890;;;-5.2;100.0
68320;BME280;55168;51.120;17.024;2022-12-18T01:38:00;101890;;;-5.2;100.0
68320;BME280;55168;51.120;17.024;2022-12-18T01:39:00;101890;;;-5.2;100.0
68320;BME280;55168;51.120;17.024;2022-12-18T01:40:00;101890;;;-5.2;100.0
68320;BME280;55168;51.120;17.024;2022-12-18T01:41:00;101890;;;-5.2;100.0
68320;BME280;55168;51.120;17.024;2022-12-18T01:42:00;101890;;;-5.3;100.0
68320;BME280;55168;51.120;17.024;2022-12-18T01:43:00;101890;;;-5.2;100.0
68320;BME280;55168;51.120;17.024;2022-12-18T01:44:00;101890;;;-5.2;100.0
68320;BME280;55168;51.120;17.024;2022-12-18T01:46:00;101890;;;-5.2;100.0
68320;BME280;55168;51.120;17.024;2022-12-18T01:47:00;101890;;;-5.2;100.0
68320;BME280;55168;51.120;17.024;2022-12-18T01:48:01;101880;;;-5.1;100.0
68320;BME280;55168;51.120;17.024;2022-12-18T01:49:00;101890;;;-5.1;100.0
68320;BME280;55168;51.120;17.024;2022-12-18T01:50:02;101880;;;-5.0;100.0
68320;BME280;55168;51.120;17.024;2022-12-18T01:51:00;101880;;;-4.9;100.0
68320;BME280;55168;51.120;17.024;2022-12-18T01:52:00;101880;;;-5.0;100.0
68320;BME280;55168;51.120;17.024;2022-12-18T01:53:02;101890;;;-5.1;100.0
68320;BME280;55168;51.120;17.024;2022-12-18T01:54:00;101890;;;-5.1;100.0
68320;BME280;55168;51.120;17.024;2022-12-18T01:55:00;101890;;;-5.1;100.0
68320;BME280;55168;51.120;17.024;2022-12-18T01:56:00;101890;;;-5.1;100.0
68320;BME280;55168;51.120;17.024;2022-12-18T01:57:00;101890;;;-5.1;100.0
68320;BME280;55168;51.120;17.024;2022-12-18T01:58:00;101900;;;-5.1;100.0
68320;BME280;55168;51.120;17.024;2022-12-18T01:59:01;101890;;;-5.1;100.0
68320;BME280;55168;51.120;17.024;2022-12-18T02:00:01;101890;;;-5.2;100.0
68320;BME280;55168;51.120;17.024;2022-12-18T02:01:00;101890;;;-5.1;100.0
68320;BME280;55168;51.120;17.024;2022-12-18T02:02:00;101890;;;-5.2;100.0
68320;BME280;55168;51.120;17.024;2022-12-18T02:03:00;101900;;;-5.2;100.0
68320;BME280;55168;51.120;17.024;2022-12-18T02:05:00;101900;;;-5.2;100.0
68320;BME280;55168;51.120;17.024;2022-12-18T02:06:06;101890;;;-5.2;100.0
68320;BME280;55168;51.120;17.024;2022-12-18T02:07:03;101900;;;-5.2;100.0
68320;BME280;55168;51.120;17.024;2022-12-18T02:10:02;101890;;;-4.9;100.0
68320;BME280;55168;51.120;17.024;2022-12-18T02:11:07;101890;;;-4.9;100.0
68320;BME280;55168;51.120;17.024;2022-12-18T02:15:02;101890;;;-4.8;100.0
68320;BME280;55168;51.120;17.024;2022-12-18T02:16:02;101890;;;-4.8;100.0
68320;BME280;55168;51.120;17.024;2022-12-18T02:17:11;101890;;;-4.8;100.0
68320;BME280;55168;51.120;17.024;2022-12-18T02:18:03;101890;;;-4.8;100.0
68320;BME280;55168;51.120;17.024;2022-12-18T02:19:00;101900;;;-4.9;100.0
68320;BME280;55168;51.120;17.024;2022-12-18T02:21:09;101900;;;-4.9;100.0
68320;BME280;55168;51.120;17.024;2022-12-18T02:23:04;101910;;;-4.9;100.0
68320;BME280;55168;51.120;17.024;2022-12-18T02:24:09;101900;;;-4.9;100.0
68320;BME280;55168;51.120;17.024;2022-12-18T02:27:01;101910;;;-4.9;100.0
68320;BME280;55168;51.120;17.024;2022-12-18T02:28:00;101910;;;-4.9;100.0
68320;BME280;55168;51.120;17.024;2022-12-18T02:30:00;101910;;;-4.8;100.0
68320;BME280;55168;51.120;17.024;2022-12-18T02:31:01;101910;;;-4.8;100.0
68320;BME280;55168;51.120;17.024;2022-12-18T02:32:00;101900;;;-4.8;100.0
68320;BME280;55168;51.120;17.024;2022-12-18T02:33:00;101900;;;-4.8;100.0
68320;BME280;55168;51.120;17.024;2022-12-18T02:34:00;101910;;;-4.8;100.0
68320;BME280;55168;51.120;17.024;2022-12-18T02:35:00;101910;;;-4.9;100.0
68320;BME280;55168;51.120;17.024;2022-12-18T02:36:00;101920;;;-4.9;100.0
68320;BME280;55168;51.120;17.024;2022-12-18T02:37:00;101930;;;-4.9;100.0
68320;BME280;55168;51.120;17.024;2022-12-18T02:38:00;101920;;;-4.9;100.0
68320;BME280;55168;51.120;17.024;2022-12-18T02:39:00;101920;;;-5.0;100.0
68320;BME280;55168;51.120;17.024;2022-12-18T02:40:00;101920;;;-5.0;100.0
68320;BME280;55168;51.120;17.024;2022-12-18T02:41:00;101920;;;-5.1;100.0
68320;BME280;55168;51.120;17.024;2022-12-18T02:42:00;101920;;;-5.1;100.0
68320;BME280;55168;51.120;17.024;2022-12-18T02:43:07;101930;;;-5.1;100.0
68320;BME280;55168;51.120;17.024;2022-12-18T02:44:00;101920;;;-5.1;100.0
68320;BME280;55168;51.120;17.024;2022-12-18T02:45:00;101920;;;-5.0;100.0
68320;BME280;55168;51.120;17.024;2022-12-18T02:46:00;101930;;;-5.0;100.0
68320;BME280;55168;51.120;17.024;2022-12-18T02:47:00;101920;;;-5.1;100.0
68320;BME280;55168;51.120;17.024;2022-12-18T02:48:00;101930;;;-5.1;100.0
68320;BME280;55168;51.120;17.024;2022-12-18T02:49:02;101920;;;-5.0;100.0
68320;BME280;55168;51.120;17.024;2022-12-18T02:51:08;101920;;;-5.0;100.0
68320;BME280;55168;51.120;17.024;2022-12-18T02:52:10;101920;;;-4.9;100.0
68320;BME280;55168;51.120;17.024;2022-12-18T02:53:04;101920;;;-4.9;100.0
68320;BME280;55168;51.120;17.024;2022-12-18T02:54:05;101920;;;-4.8;100.0
68320;BME280;55168;51.120;17.024;2022-12-18T02:55:05;101930;;;-4.8;100.0
68320;BME280;55168;51.120;17.024;2022-12-18T02:56:05;101930;;;-4.9;100.0
68320;BME280;55168;51.120;17.024;2022-12-18T02:57:02;101920;;;-5.1;100.0
68320;BME280;55168;51.120;17.024;2022-12-18T02:58:03;101920;;;-5.2;100.0
68320;BME280;55168;51.120;17.024;2022-12-18T02:59:01;101920;;;-5.2;100.0
68320;BME280;55168;51.120;17.024;2022-12-18T03:02:02;101920;;;-5.1;100.0
68320;BME280;55168;51.120;17.024;2022-12-18T03:04:02;101920;;;-5.1;100.0
68320;BME280;55168;51.120;17.024;2022-12-18T03:05:03;101930;;;-5.1;100.0
68320;BME280;55168;51.120;17.024;2022-12-18T03:06:01;101930;;;-5.1;100.0
68320;BME280;55168;51.120;17.024;2022-12-18T03:07:01;101930;;;-5.0;100.0
68320;BME280;55168;51.120;17.024;2022-12-18T03:08:08;101930;;;-5.0;100.0
68320;BME280;55168;51.120;17.024;2022-12-18T03:09:01;101930;;;-4.9;100.0
68320;BME280;55168;51.120;17.024;2022-12-18T03:10:00;101930;;;-4.8;100.0
68320;BME280;55168;51.120;17.024;2022-12-18T03:11:02;101930;;;-4.9;100.0
68320;BME280;55168;51.120;17.024;2022-12-18T03:12:17;101930;;;-5.0;100.0
68320;BME280;55168;51.120;17.024;2022-12-18T03:13:04;101930;;;-5.1;100.0
68320;BME280;55168;51.120;17.024;2022-12-18T03:14:00;101930;;;-5.1;100.0
68320;BME280;55168;51.120;17.024;2022-12-18T03:15:03;101930;;;-5.2;100.0
68320;BME280;55168;51.120;17.024;2022-12-18T03:16:00;101930;;;-5.2;100.0
68320;BME280;55168;51.120;17.024;2022-12-18T03:17:03;101930;;;-5.3;100.0
68320;BME280;55168;51.120;17.024;2022-12-18T03:18:02;101940;;;-5.4;100.0
68320;BME280;55168;51.120;17.024;2022-12-18T03:19:01;101940;;;-5.4;100.0
68320;BME280;55168;51.120;17.024;2022-12-18T03:20:15;101940;;;-5.4;100.0
68320;BME280;55168;51.120;17.024;2022-12-18T03:21:00;101940;;;-5.4;100.0
68320;BME280;55168;51.120;17.024;2022-12-18T03:22:00;101940;;;-5.4;100.0
68320;BME280;55168;51.120;17.024;2022-12-18T03:23:02;101940;;;-5.4;100.0
68320;BME280;55168;51.120;17.024;2022-12-18T03:24:00;101940;;;-5.3;100.0
68320;BME280;55168;51.120;17.024;2022-12-18T03:25:00;101950;;;-5.3;100.0
68320;BME280;55168;51.120;17.024;2022-12-18T03:26:02;101940;;;-5.2;100.0
68320;BME280;55168;51.120;17.024;2022-12-18T03:27:01;101950;;;-5.2;100.0
68320;BME280;55168;51.120;17.024;2022-12-18T03:28:00;101940;;;-5.2;100.0
68320;BME280;55168;51.120;17.024;2022-12-18T03:29:00;101940;;;-5.2;100.0
68320;BME280;55168;51.120;17.024;2022-12-18T03:30:01;101940;;;-5.2;100.0
68320;BME280;55168;51.120;17.024;2022-12-18T03:31:00;101940;;;-5.0;100.0
68320;BME280;55168;51.120;17.024;2022-12-18T03:32:01;101930;;;-4.9;100.0
68320;BME280;55168;51.120;17.024;2022-12-18T03:33:02;101930;;;-4.9;100.0
68320;BME280;55168;51.120;17.024;2022-12-18T03:34:01;101930;;;-4.9;100.0
68320;BME280;55168;51.120;17.024;2022-12-18T03:35:03;101940;;;-4.9;100.0
68320;BME280;55168;51.120;17.024;2022-12-18T03:36:00;101940;;;-4.8;100.0
68320;BME280;55168;51.120;17.024;2022-12-18T03:37:00;101940;;;-4.8;100.0
68320;BME280;55168;51.120;17.024;2022-12-18T03:38:00;101940;;;-4.9;100.0
68320;BME280;55168;51.120;17.024;2022-12-18T03:39:00;101940;;;-4.9;100.0
68320;BME280;55168;51.120;17.024;2022-12-18T03:40:00;101950;;;-4.9;100.0
68320;BME280;55168;51.120;17.024;2022-12-18T03:41:03;101950;;;-4.9;100.0
68320;BME280;55168;51.120;17.024;2022-12-18T03:43:08;101950;;;-4.9;100.0
68320;BME280;55168;51.120;17.024;2022-12-18T03:45:02;101950;;;-4.8;100.0
68320;BME280;55168;51.120;17.024;2022-12-18T03:46:02;101950;;;-4.8;100.0
68320;BME280;55168;51.120;17.024;2022-12-18T03:47:04;101950;;;-4.8;100.0
68320;BME280;55168;51.120;17.024;2022-12-18T03:48:08;101950;;;-4.8;100.0
68320;BME280;55168;51.120;17.024;2022-12-18T03:49:02;101950;;;-4.9;100.0
68320;BME280;55168;51.120;17.024;2022-12-18T03:50:07;101950;;;-4.9;100.0
68320;BME280;55168;51.120;17.024;2022-12-18T03:51:02;101950;;;-5.0;100.0
68320;BME280;55168;51.120;17.024;2022-12-18T03:52:04;101950;;;-5.1;100.0
68320;BME280;55168;51.120;17.024;2022-12-18T03:53:02;101950;;;-5.2;100.0
68320;BME280;55168;51.120;17.024;2022-12-18T03:54:00;101960;;;-5.1;100.0
68320;BME280;55168;51.120;17.024;2022-12-18T03:55:00;101960;;;-5.2;100.0
68320;BME280;55168;51.120;17.024;2022-12-18T03:56:00;101960;;;-5.2;100.0
68320;BME280;55168;51.120;17.024;2022-12-18T03:57:06;101960;;;-5.2;100.0
68320;BME280;55168;51.120;17.024;2022-12-18T03:58:00;101960;;;-5.3;100.0
68320;BME280;55168;51.120;17.024;2022-12-18T03:59:00;101960;;;-5.4;100.0
68320;BME280;55168;51.120;17.024;2022-12-18T04:00:00;101960;;;-5.4;100.0
68320;BME280;55168;51.120;17.024;2022-12-18T04:01:00;101970;;;-5.5;100.0
68320;BME280;55168;51.120;17.024;2022-12-18T04:02:00;101970;;;-5.5;100.0
68320;BME280;55168;51.120;17.024;2022-12-18T04:03:00;101970;;;-5.6;100.0
68320;BME280;55168;51.120;17.024;2022-12-18T04:04:00;101970;;;-5.6;100.0
68320;BME280;55168;51.120;17.024;2022-12-18T04:05:00;101970;;;-5.6;100.0
68320;BME280;55168;51.120;17.024;2022-12-18T04:06:00;101970;;;-5.5;100.0
68320;BME280;55168;51.120;17.024;2022-12-18T04:07:00;101970;;;-5.4;100.0
68320;BME280;55168;51.120;17.024;2022-12-18T04:08:00;101970;;;-5.4;100.0
68320;BME280;55168;51.120;17.024;2022-12-18T04:09:00;101970;;;-5.4;100.0
68320;BME280;55168;51.120;17.024;2022-12-18T04:10:00;101970;;;-5.3;100.0
68320;BME280;55168;51.120;17.024;2022-12-18T04:11:00;101970;;;-5.3;100.0
68320;BME280;55168;51.120;17.024;2022-12-18T04:12:00;101970;;;-5.2;100.0
68320;BME280;55168;51.120;17.024;2022-12-18T04:13:00;101970;;;-5.1;100.0
68320;BME280;55168;51.120;17.024;2022-12-18T04:14:00;101970;;;-5.1;100.0
68320;BME280;55168;51.120;17.024;2022-12-18T04:15:00;101980;;;-5.1;100.0
68320;BME280;55168;51.120;17.024;2022-12-18T04:16:00;101970;;;-5.1;100.0
68320;BME280;55168;51.120;17.024;2022-12-18T04:17:00;101970;;;-5.2;100.0
68320;BME280;55168;51.120;17.024;2022-12-18T04:18:00;101970;;;-5.2;100.0
68320;BME280;55168;51.120;17.024;2022-12-18T04:19:00;101980;;;-5.2;100.0
68320;BME280;55168;51.120;17.024;2022-12-18T04:20:00;101980;;;-5.3;100.0
68320;BME280;55168;51.120;17.024;2022-12-18T04:21:00;101980;;;-5.3;100.0
68320;BME280;55168;51.120;17.024;2022-12-18T04:22:00;101980;;;-5.4;100.0
68320;BME280;55168;51.120;17.024;2022-12-18T04:23:00;101980;;;-5.5;100.0
68320;BME280;55168;51.120;17.024;2022-12-18T04:24:00;101980;;;-5.5;100.0
68320;BME280;55168;51.120;17.024;2022-12-18T04:25:00;101990;;;-5.6;100.0
68320;BME280;55168;51.120;17.024;2022-12-18T04:26:00;101990;;;-5.6;100.0
68320;BME280;55168;51.120;17.024;2022-12-18T04:27:00;101990;;;-5.6;100.0
68320;BME280;55168;51.120;17.024;2022-12-18T04:28:00;101990;;;-5.6;100.0
68320;BME280;55168;51.120;17.024;2022-12-18T04:29:00;101990;;;-5.6;100.0
68320;BME280;55168;51.120;17.024;2022-12-18T04:30:00;101990;;;-5.6;100.0
68320;BME280;55168;51.120;17.024;2022-12-18T04:31:00;101990;;;-5.4;100.0
68320;BME280;55168;51.120;17.024;2022-12-18T04:32:00;102000;;;-5.4;100.0
68320;BME280;55168;51.120;17.024;2022-12-18T04:33:00;102000;;;-5.4;100.0
68320;BME280;55168;51.120;17.024;2022-12-18T04:34:00;102000;;;-5.5;100.0
68320;BME280;55168;51.120;17.024;2022-12-18T04:35:00;101990;;;-5.5;100.0
68320;BME280;55168;51.120;17.024;2022-12-18T04:36:00;101990;;;-5.5;100.0
68320;BME280;55168;51.120;17.024;2022-12-18T04:37:00;101990;;;-5.5;100.0
68320;BME280;55168;51.120;17.024;2022-12-18T04:38:00;101990;;;-5.4;100.0
68320;BME280;55168;51.120;17.024;2022-12-18T04:39:00;101990;;;-5.4;100.0
68320;BME280;55168;51.120;17.024;2022-12-18T04:40:00;101990;;;-5.5;100.0
68320;BME280;55168;51.120;17.024;2022-12-18T04:41:00;101990;;;-5.5;100.0
68320;BME280;55168;51.120;17.024;2022-12-18T04:42:00;101990;;;-5.5;100.0
68320;BME280;55168;51.120;17.024;2022-12-18T04:43:00;102000;;;-5.6;100.0
68320;BME280;55168;51.120;17.024;2022-12-18T04:44:00;102000;;;-5.6;100.0
68320;BME280;55168;51.120;17.024;2022-12-18T04:45:00;102000;;;-5.6;100.0
68320;BME280;55168;51.120;17.024;2022-12-18T04:46:02;102000;;;-5.6;100.0
68320;BME280;55168;51.120;17.024;2022-12-18T04:47:00;102010;;;-5.7;100.0
68320;BME280;55168;51.120;17.024;2022-12-18T04:48:00;102010;;;-5.6;100.0
68320;BME280;55168;51.120;17.024;2022-12-18T04:49:00;102010;;;-5.6;100.0
68320;BME280;55168;51.120;17.024;2022-12-18T04:50:00;102010;;;-5.6;100.0
68320;BME280;55168;51.120;17.024;2022-12-18T04:51:00;102010;;;-5.6;100.0
68320;BME280;55168;51.120;17.024;2022-12-18T04:52:00;102010;;;-5.6;100.0
68320;BME280;55168;51.120;17.024;2022-12-18T04:53:00;102020;;;-5.6;100.0
68320;BME280;55168;51.120;17.024;2022-12-18T04:54:00;102010;;;-5.6;100.0
68320;BME280;55168;51.120;17.024;2022-12-18T04:55:00;102010;;;-5.7;100.0
68320;BME280;55168;51.120;17.024;2022-12-18T04:56:15;102010;;;-5.7;100.0
68320;BME280;55168;51.120;17.024;2022-12-18T04:57:00;102010;;;-5.6;100.0
68320;BME280;55168;51.120;17.024;2022-12-18T04:58:00;102020;;;-5.6;100.0
68320;BME280;55168;51.120;17.024;2022-12-18T04:59:00;102010;;;-5.7;100.0
68320;BME280;55168;51.120;17.024;2022-12-18T05:00:00;102020;;;-5.7;100.0
68320;BME280;55168;51.120;17.024;2022-12-18T05:01:00;102020;;;-5.7;100.0
68320;BME280;55168;51.120;17.024;2022-12-18T05:02:00;102020;;;-5.7;100.0
68320;BME280;55168;51.120;17.024;2022-12-18T05:03:00;102020;;;-5.8;100.0
68320;BME280;55168;51.120;17.024;2022-12-18T05:04:00;102020;;;-5.7;100.0
68320;BME280;55168;51.120;17.024;2022-12-18T05:05:00;102020;;;-5.7;100.0
68320;BME280;55168;51.120;17.024;2022-12-18T05:06:00;102020;;;-5.7;100.0
68320;BME280;55168;51.120;17.024;2022-12-18T05:07:00;102020;;;-5.6;100.0
68320;BME280;55168;51.120;17.024;2022-12-18T05:08:00;102020;;;-5.6;100.0
68320;BME280;55168;51.120;17.024;2022-12-18T05:09:00;102030;;;-5.5;100.0
68320;BME280;55168;51.120;17.024;2022-12-18T05:10:00;102030;;;-5.3;100.0
68320;BME280;55168;51.120;17.024;2022-12-18T05:11:04;102030;;;-5.3;100.0
68320;BME280;55168;51.120;17.024;2022-12-18T05:12:00;102030;;;-5.3;100.0
68320;BME280;55168;51.120;17.024;2022-12-18T05:13:00;102030;;;-5.2;100.0
68320;BME280;55168;51.120;17.024;2022-12-18T05:14:00;102030;;;-5.3;100.0
68320;BME280;55168;51.120;17.024;2022-12-18T05:15:00;102040;;;-5.3;100.0
68320;BME280;55168;51.120;17.024;2022-12-18T05:16:00;102030;;;-5.2;100.0
68320;BME280;55168;51.120;17.024;2022-12-18T05:17:00;102040;;;-5.2;100.0
68320;BME280;55168;51.120;17.024;2022-12-18T05:18:00;102030;;;-5.2;100.0
68320;BME280;55168;51.120;17.024;2022-12-18T05:19:00;102030;;;-5.2;100.0
68320;BME280;55168;51.120;17.024;2022-12-18T05:20:00;102040;;;-5.2;100.0
68320;BME280;55168;51.120;17.024;2022-12-18T05:21:00;102040;;;-5.2;100.0
68320;BME280;55168;51.120;17.024;2022-12-18T05:22:00;102040;;;-5.2;100.0
68320;BME280;55168;51.120;17.024;2022-12-18T05:23:00;102040;;;-5.2;100.0
68320;BME280;55168;51.120;17.024;2022-12-18T05:24:00;102040;;;-5.3;100.0
68320;BME280;55168;51.120;17.024;2022-12-18T05:25:00;102030;;;-5.4;100.0
68320;BME280;55168;51.120;17.024;2022-12-18T05:26:01;102040;;;-5.5;100.0
68320;BME280;55168;51.120;17.024;2022-12-18T05:27:00;102030;;;-5.6;100.0
68320;BME280;55168;51.120;17.024;2022-12-18T05:28:00;102030;;;-5.6;100.0
68320;BME280;55168;51.120;17.024;2022-12-18T05:29:00;102030;;;-5.6;100.0
68320;BME280;55168;51.120;17.024;2022-12-18T05:30:00;102040;;;-5.7;100.0
68320;BME280;55168;51.120;17.024;2022-12-18T05:31:00;102040;;;-5.7;100.0
68320;BME280;55168;51.120;17.024;2022-12-18T05:32:00;102040;;;-5.7;100.0
68320;BME280;55168;51.120;17.024;2022-12-18T05:33:00;102040;;;-5.7;100.0
68320;BME280;55168;51.120;17.024;2022-12-18T05:34:00;102040;;;-5.6;100.0
68320;BME280;55168;51.120;17.024;2022-12-18T05:35:00;102040;;;-5.7;100.0
68320;BME280;55168;51.120;17.024;2022-12-18T05:36:00;102040;;;-5.6;100.0
68320;BME280;55168;51.120;17.024;2022-12-18T05:37:00;102040;;;-5.6;100.0
68320;BME280;55168;51.120;17.024;2022-12-18T05:38:00;102040;;;-5.6;100.0
68320;BME280;55168;51.120;17.024;2022-12-18T05:39:00;102040;;;-5.5;100.0
68320;BME280;55168;51.120;17.024;2022-12-18T05:40:00;102040;;;-5.5;100.0
68320;BME280;55168;51.120;17.024;2022-12-18T05:41:00;102050;;;-5.6;100.0
68320;BME280;55168;51.120;17.024;2022-12-18T05:42:00;102050;;;-5.6;100.0
68320;BME280;55168;51.120;17.024;2022-12-18T05:43:00;102050;;;-5.6;100.0
68320;BME280;55168;51.120;17.024;2022-12-18T05:44:00;102050;;;-5.6;100.0
68320;BME280;55168;51.120;17.024;2022-12-18T05:45:00;102050;;;-5.6;100.0